createdAt,value
2018-09-10T00:00:54.643Z,92.90
2018-09-10T00:03:22.849Z,93.00
2018-09-10T00:05:51.073Z,93.00
2018-09-10T00:08:19.270Z,92.80
2018-09-10T00:10:47.493Z,93.10
2018-09-10T00:13:15.676Z,93.40
2018-09-10T00:15:43.906Z,93.70
2018-09-10T00:18:12.111Z,93.90
2018-09-10T00:20:40.353Z,94.10
2018-09-10T00:23:08.543Z,94.30
2018-09-10T00:25:36.765Z,94.50
2018-09-10T00:28:05.008Z,94.40
2018-09-10T00:30:33.221Z,95.00
2018-09-10T00:33:01.538Z,95.50
2018-09-10T00:35:29.741Z,95.70
2018-09-10T00:37:57.978Z,95.70
2018-09-10T00:40:26.178Z,95.90
2018-09-10T00:42:54.406Z,95.80
2018-09-10T00:45:22.593Z,95.80
2018-09-10T00:47:50.810Z,96.10
2018-09-10T00:50:19.029Z,96.20
2018-09-10T00:52:47.295Z,96.00
2018-09-10T00:55:15.516Z,95.90
2018-09-10T00:57:43.734Z,95.80
2018-09-10T01:00:11.941Z,95.80
2018-09-10T01:02:40.154Z,95.60
2018-09-10T01:05:08.356Z,96.10
2018-09-10T01:07:36.595Z,96.20
2018-09-10T01:10:04.966Z,96.00
2018-09-10T01:12:33.181Z,95.90
2018-09-10T01:15:01.399Z,96.10
2018-09-10T01:17:29.616Z,96.10
2018-09-10T01:19:57.912Z,96.20
2018-09-10T01:22:26.149Z,96.10
2018-09-10T01:24:54.344Z,95.80
2018-09-10T01:27:22.673Z,96.20
2018-09-10T01:29:50.852Z,96.10
2018-09-10T01:32:19.098Z,96.70
2018-09-10T01:34:52.789Z,96.50
2018-09-10T01:37:21.018Z,96.10
2018-09-10T01:39:49.205Z,96.00
2018-09-10T01:42:17.448Z,95.50
2018-09-10T01:44:45.634Z,95.20
2018-09-10T01:47:13.846Z,95.50
2018-09-10T01:49:42.146Z,95.40
2018-09-10T01:52:10.371Z,95.40
2018-09-10T01:54:38.670Z,95.20
2018-09-10T01:57:06.919Z,95.20
2018-09-10T01:59:35.153Z,95.00
2018-09-10T02:02:03.414Z,95.40
2018-09-10T02:04:31.652Z,95.70
2018-09-10T02:06:59.888Z,95.70
2018-09-10T02:09:28.104Z,95.70
2018-09-10T02:11:56.313Z,95.90
2018-09-10T02:14:24.541Z,95.50
2018-09-10T02:16:52.745Z,95.70
2018-09-10T02:19:20.982Z,95.70
2018-09-10T02:21:49.167Z,95.90
2018-09-10T02:24:17.418Z,95.40
2018-09-10T02:26:45.625Z,95.50
2018-09-10T02:29:13.878Z,95.40
2018-09-10T02:31:42.113Z,95.50
2018-09-10T02:34:10.352Z,96.00
2018-09-10T02:36:38.561Z,96.10
2018-09-10T02:39:07.825Z,96.50
2018-09-10T02:41:41.800Z,96.30
2018-09-10T02:44:10.644Z,96.50
2018-09-10T02:46:38.857Z,96.20
2018-09-10T02:49:07.186Z,96.50
2018-09-10T02:51:35.430Z,96.50
2018-09-10T02:54:03.689Z,96.40
2018-09-10T02:56:31.933Z,96.50
2018-09-10T02:59:00.476Z,96.10
2018-09-10T03:01:28.950Z,96.10
2018-09-10T03:03:57.213Z,96.10
2018-09-10T03:06:25.591Z,96.00
2018-09-10T03:08:53.832Z,96.10
2018-09-10T03:11:22.160Z,96.40
2018-09-10T03:13:50.385Z,96.90
2018-09-10T03:16:18.570Z,97.20
2018-09-10T03:18:46.790Z,97.40
2018-09-10T03:21:15.129Z,97.80
2018-09-10T03:23:43.325Z,97.40
2018-09-10T03:26:11.554Z,97.60
2018-09-10T03:28:39.745Z,97.00
2018-09-10T03:31:07.978Z,97.00
2018-09-10T03:33:36.268Z,97.80
2018-09-10T03:36:04.423Z,97.50
2018-09-10T03:38:32.617Z,97.00
2018-09-10T03:41:00.848Z,97.00
2018-09-10T03:43:29.058Z,96.80
2018-09-10T03:45:57.312Z,96.10
2018-09-10T03:48:25.515Z,95.60
2018-09-10T03:50:53.734Z,95.90
2018-09-10T03:53:21.941Z,96.10
2018-09-10T03:55:50.261Z,95.60
2018-09-10T03:58:18.497Z,95.60
2018-09-10T04:00:46.731Z,95.20
2018-09-10T04:03:14.917Z,96.40
2018-09-10T04:05:43.153Z,96.40
2018-09-10T04:08:11.345Z,96.30
2018-09-10T04:10:39.574Z,96.10
2018-09-10T04:13:07.852Z,95.90
2018-09-10T04:15:36.104Z,95.80
2018-09-10T04:18:04.404Z,95.40
2018-09-10T04:20:32.622Z,95.70
2018-09-10T04:23:00.800Z,95.80
2018-09-10T04:25:29.020Z,95.70
2018-09-10T04:27:57.208Z,96.50
2018-09-10T04:30:25.441Z,96.90
2018-09-10T04:32:53.643Z,96.60
2018-09-10T04:35:21.889Z,96.40
2018-09-10T04:37:50.088Z,96.30
2018-09-10T04:40:18.332Z,95.80
2018-09-10T04:42:46.549Z,96.20
2018-09-10T04:45:14.730Z,95.70
2018-09-10T04:47:42.970Z,96.20
2018-09-10T04:50:11.165Z,96.30
2018-09-10T04:52:39.384Z,95.70
2018-09-10T04:55:07.636Z,95.90
2018-09-10T04:57:36.018Z,96.00
2018-09-10T05:00:04.464Z,96.10
2018-09-10T05:02:32.667Z,95.90
2018-09-10T05:05:00.889Z,95.90
2018-09-10T05:07:29.490Z,95.70
2018-09-10T05:09:58.063Z,95.60
2018-09-10T05:12:26.632Z,95.30
2018-09-10T05:14:55.305Z,95.50
2018-09-10T05:17:24.014Z,95.20
2018-09-10T05:19:52.666Z,95.10
2018-09-10T05:22:21.395Z,95.70
2018-09-10T05:24:50.024Z,95.90
2018-09-10T05:27:18.273Z,95.70
2018-09-10T05:29:46.553Z,95.20
2018-09-10T05:32:14.861Z,94.50
2018-09-10T05:34:43.373Z,94.10
2018-09-10T05:37:11.622Z,94.20
2018-09-10T05:39:39.864Z,93.80
2018-09-10T05:42:08.114Z,93.50
2018-09-10T05:44:36.289Z,92.70
2018-09-10T05:47:04.522Z,92.40
2018-09-10T05:49:32.718Z,92.40
2018-09-10T05:52:00.964Z,91.20
2018-09-10T05:54:29.153Z,91.10
2018-09-10T05:56:57.401Z,90.90
2018-09-10T05:59:25.643Z,90.70
2018-09-10T06:01:53.900Z,89.90
2018-09-10T06:04:22.172Z,90.00
2018-09-10T06:06:50.397Z,89.10
2018-09-10T06:09:18.628Z,89.70
2018-09-10T06:11:46.829Z,89.50
2018-09-10T06:14:15.064Z,88.20
2018-09-10T06:16:43.266Z,87.60
2018-09-10T06:19:11.512Z,86.60
2018-09-10T06:21:39.710Z,87.70
2018-09-10T06:24:07.952Z,87.60
2018-09-10T06:26:36.176Z,88.10
2018-09-10T06:29:04.432Z,88.30
2018-09-10T06:31:32.644Z,88.10
2018-09-10T06:34:00.969Z,87.60
2018-09-10T06:36:29.241Z,87.90
2018-09-10T06:38:57.465Z,87.90
2018-09-10T06:41:25.666Z,87.30
2018-09-10T06:43:53.857Z,87.90
2018-09-10T06:46:22.096Z,87.10
2018-09-10T06:48:50.313Z,87.70
2018-09-10T06:51:18.501Z,87.20
2018-09-10T06:53:46.714Z,86.70
2018-09-10T06:56:14.892Z,88.00
2018-09-10T06:58:43.159Z,85.60
2018-09-10T07:01:11.330Z,85.60
2018-09-10T07:03:39.539Z,85.90
2018-09-10T07:06:07.729Z,86.20
2018-09-10T07:08:35.941Z,86.10
2018-09-10T07:11:04.214Z,85.00
2018-09-10T07:13:32.460Z,85.30
2018-09-10T07:16:00.642Z,85.00
2018-09-10T07:18:28.914Z,84.30
2018-09-10T07:20:57.089Z,83.80
2018-09-10T07:23:25.281Z,84.10
2018-09-10T07:25:53.497Z,83.70
2018-09-10T07:28:21.726Z,83.90
2018-09-10T07:30:49.959Z,83.00
2018-09-10T07:33:18.170Z,83.00
2018-09-10T07:35:46.445Z,82.80
2018-09-10T07:38:14.616Z,82.80
2018-09-10T07:40:42.833Z,82.90
2018-09-10T07:43:11.029Z,81.90
2018-09-10T07:45:39.258Z,81.10
2018-09-10T07:48:07.441Z,81.40
2018-09-10T07:50:35.666Z,81.80
2018-09-10T07:53:03.930Z,82.80
2018-09-10T07:55:32.209Z,82.60
2018-09-10T07:58:00.442Z,82.00
2018-09-10T08:00:28.754Z,81.20
2018-09-10T08:02:57.132Z,80.60
2018-09-10T08:05:25.361Z,79.60
2018-09-10T08:07:53.561Z,79.80
2018-09-10T08:10:21.901Z,78.50
2018-09-10T08:12:50.108Z,78.60
2018-09-10T08:15:18.334Z,76.60
2018-09-10T08:17:46.529Z,77.40
2018-09-10T08:20:14.766Z,76.60
2018-09-10T08:22:42.940Z,75.40
2018-09-10T08:25:11.230Z,75.80
2018-09-10T08:27:39.421Z,74.80
2018-09-10T08:30:08.100Z,75.10
2018-09-10T08:32:36.289Z,76.50
2018-09-10T08:35:04.614Z,75.80
2018-09-10T08:37:32.865Z,75.00
2018-09-10T08:40:01.086Z,75.20
2018-09-10T08:42:29.315Z,76.00
2018-09-10T08:44:57.845Z,74.60
2018-09-10T08:47:26.073Z,75.60
2018-09-10T08:49:54.331Z,73.70
2018-09-10T08:52:22.582Z,74.20
2018-09-10T08:54:51.132Z,72.60
2018-09-10T08:57:19.025Z,73.90
2018-09-10T08:59:47.198Z,73.10
2018-09-10T09:02:15.453Z,73.90
2018-09-10T09:04:43.725Z,72.70
2018-09-10T09:07:11.980Z,72.70
2018-09-10T09:09:40.162Z,72.50
2018-09-10T09:12:08.401Z,72.00
2018-09-10T09:14:36.612Z,72.10
2018-09-10T09:17:04.996Z,73.80
2018-09-10T09:19:33.245Z,73.20
2018-09-10T09:22:01.456Z,71.90
2018-09-10T09:24:29.625Z,72.30
2018-09-10T09:26:57.834Z,72.00
2018-09-10T09:29:26.025Z,70.70
2018-09-10T09:31:54.336Z,70.40
2018-09-10T09:34:22.890Z,72.40
2018-09-10T09:36:56.725Z,72.30
2018-09-10T09:39:30.517Z,72.20
2018-09-10T09:42:04.360Z,71.00
2018-09-10T09:44:37.985Z,71.10
2018-09-10T09:47:06.225Z,71.00
2018-09-10T09:49:34.402Z,71.10
2018-09-10T09:52:02.617Z,71.60
2018-09-10T09:54:30.790Z,71.10
2018-09-10T09:56:59.125Z,70.70
2018-09-10T09:59:27.305Z,70.50
2018-09-10T10:03:00.625Z,70.70
2018-09-10T10:05:28.845Z,71.10
2018-09-10T10:07:57.098Z,70.90
2018-09-10T10:10:25.265Z,70.40
2018-09-10T10:12:53.489Z,70.90
2018-09-10T10:15:21.714Z,69.80
2018-09-10T10:17:49.912Z,69.40
2018-09-10T10:20:18.090Z,69.90
2018-09-10T10:22:46.292Z,70.10
2018-09-10T10:25:14.725Z,67.30
2018-09-10T10:27:43.045Z,68.40
2018-09-10T10:30:11.256Z,67.10
2018-09-10T10:32:39.594Z,69.20
2018-09-10T10:35:07.773Z,68.20
2018-09-10T10:37:36.009Z,68.30
2018-09-10T10:40:04.549Z,67.50
2018-09-10T10:42:32.717Z,67.70
2018-09-10T10:45:00.947Z,67.50
2018-09-10T10:47:29.198Z,66.20
2018-09-10T10:49:57.401Z,67.70
2018-09-10T10:52:32.423Z,65.70
2018-09-10T10:55:00.737Z,63.50
2018-09-10T10:57:28.950Z,66.10
2018-09-10T10:59:57.246Z,66.40
2018-09-10T11:02:25.420Z,68.00
2018-09-10T11:04:53.695Z,67.70
2018-09-10T11:07:21.870Z,69.50
2018-09-10T11:09:50.078Z,67.90
2018-09-10T11:12:18.268Z,66.50
2018-09-10T11:14:46.462Z,67.80
2018-09-10T11:17:14.633Z,65.70
2018-09-10T11:19:42.873Z,63.80
2018-09-10T11:22:11.065Z,65.00
2018-09-10T11:24:39.301Z,65.50
2018-09-10T11:27:07.478Z,66.80
2018-09-10T11:29:35.716Z,66.80
2018-09-10T11:32:03.913Z,67.30
2018-09-10T11:34:32.209Z,66.30
2018-09-10T11:37:00.353Z,65.80
2018-09-10T11:39:28.605Z,64.50
2018-09-10T11:41:56.803Z,66.30
2018-09-10T11:44:25.037Z,65.00
2018-09-10T11:46:53.217Z,66.80
2018-09-10T11:49:21.514Z,67.00
2018-09-10T11:51:49.697Z,64.70
2018-09-10T11:54:17.901Z,64.30
2018-09-10T11:56:46.097Z,63.40
2018-09-10T11:59:14.370Z,63.60
2018-09-10T12:01:42.584Z,63.30
2018-09-10T12:04:10.846Z,64.40
2018-09-10T12:06:39.143Z,62.00
2018-09-10T12:09:08.476Z,62.60
2018-09-10T12:11:36.713Z,61.60
2018-09-10T12:14:05.114Z,62.90
2018-09-10T12:16:34.028Z,62.60
2018-09-10T12:19:02.225Z,61.00
2018-09-10T12:21:30.524Z,58.80
2018-09-10T12:23:58.733Z,57.90
2018-09-10T12:26:27.092Z,57.80
2018-09-10T12:28:55.261Z,59.20
2018-09-10T12:31:23.475Z,61.30
2018-09-10T12:33:51.677Z,59.00
2018-09-10T12:36:19.991Z,58.90
2018-09-10T12:38:48.181Z,59.00
2018-09-10T12:41:16.509Z,58.20
2018-09-10T12:43:44.693Z,58.30
2018-09-10T12:46:13.030Z,60.80
2018-09-10T12:48:41.230Z,62.30
2018-09-10T12:51:09.528Z,63.00
2018-09-10T12:53:37.731Z,60.80
2018-09-10T12:56:06.223Z,61.40
2018-09-10T12:58:34.408Z,59.20
2018-09-10T13:01:02.637Z,59.10
2018-09-10T13:03:30.896Z,59.50
2018-09-10T13:05:59.125Z,60.50
2018-09-10T13:08:27.301Z,62.50
2018-09-10T13:10:55.582Z,60.10
2018-09-10T13:13:23.785Z,60.60
2018-09-10T13:15:52.009Z,61.20
2018-09-10T13:18:20.218Z,61.60
2018-09-10T13:20:48.453Z,60.80
2018-09-10T13:23:16.633Z,60.90
2018-09-10T13:25:44.840Z,62.40
2018-09-10T13:28:13.011Z,61.90
2018-09-10T13:30:41.267Z,60.80
2018-09-10T13:33:09.477Z,60.50
2018-09-10T13:35:37.670Z,60.50
2018-09-10T13:38:05.899Z,60.00
2018-09-10T13:40:34.104Z,60.00
2018-09-10T13:43:03.295Z,57.20
2018-09-10T13:45:31.481Z,57.90
2018-09-10T13:47:59.712Z,58.50
2018-09-10T13:50:27.889Z,59.00
2018-09-10T13:53:02.857Z,55.60
2018-09-10T13:55:31.141Z,55.80
2018-09-10T13:57:59.353Z,55.70
2018-09-10T14:00:27.602Z,54.80
2018-09-10T14:02:55.826Z,54.90
2018-09-10T14:05:24.069Z,56.60
2018-09-10T14:07:52.395Z,57.20
2018-09-10T14:10:20.601Z,56.70
2018-09-10T14:12:48.831Z,57.20
2018-09-10T14:15:17.042Z,57.30
2018-09-10T14:17:45.420Z,58.70
2018-09-10T14:20:13.635Z,58.40
2018-09-10T14:22:41.882Z,58.50
2018-09-10T14:25:10.125Z,57.20
2018-09-10T14:27:38.342Z,58.30
2018-09-10T14:30:06.626Z,58.20
2018-09-10T14:32:34.841Z,58.80
2018-09-10T14:35:03.072Z,57.90
2018-09-10T14:37:31.431Z,56.50
2018-09-10T14:39:59.621Z,55.80
2018-09-10T14:42:27.861Z,56.20
2018-09-10T14:44:56.038Z,55.10
2018-09-10T14:47:24.263Z,55.60
2018-09-10T14:49:52.493Z,56.40
2018-09-10T14:52:20.722Z,56.60
2018-09-10T14:54:48.916Z,56.70
2018-09-10T14:57:17.125Z,55.90
2018-09-10T14:59:45.380Z,58.20
2018-09-10T15:02:13.570Z,56.90
2018-09-10T15:04:41.792Z,57.40
2018-09-10T15:07:10.033Z,57.80
2018-09-10T15:09:38.291Z,56.70
2018-09-10T15:12:06.303Z,56.00
2018-09-10T15:14:34.537Z,56.60
2018-09-10T15:17:02.708Z,58.10
2018-09-10T15:19:30.957Z,56.40
2018-09-10T15:21:59.158Z,58.30
2018-09-10T15:24:27.386Z,59.30
2018-09-10T15:26:55.585Z,57.90
2018-09-10T15:29:23.858Z,58.90
2018-09-10T15:31:52.110Z,59.40
2018-09-10T15:34:20.341Z,60.20
2018-09-10T15:36:48.595Z,61.10
2018-09-10T15:39:16.829Z,62.50
2018-09-10T15:41:45.041Z,61.90
2018-09-10T15:44:13.265Z,61.60
2018-09-10T15:46:41.454Z,61.70
2018-09-10T15:49:09.726Z,62.20
2018-09-10T15:51:37.926Z,62.50
2018-09-10T15:54:06.318Z,62.60
2018-09-10T15:56:34.794Z,62.90
2018-09-10T15:59:03.226Z,62.60
2018-09-10T16:01:31.406Z,63.50
2018-09-10T16:03:59.644Z,63.40
2018-09-10T16:06:27.925Z,65.00
2018-09-10T16:08:56.253Z,64.40
2018-09-10T16:11:24.483Z,63.60
2018-09-10T16:13:52.709Z,63.30
2018-09-10T16:16:20.895Z,64.20
2018-09-10T16:18:49.117Z,63.20
2018-09-10T16:21:17.830Z,62.40
2018-09-10T16:23:46.040Z,63.70
2018-09-10T16:26:14.261Z,65.00
2018-09-10T16:28:42.437Z,63.20
2018-09-10T16:31:10.650Z,65.40
2018-09-10T16:33:38.859Z,66.20
2018-09-10T16:36:07.065Z,63.70
2018-09-10T16:38:35.273Z,64.90
2018-09-10T16:41:03.639Z,65.90
2018-09-10T16:43:31.822Z,66.90
2018-09-10T16:46:00.058Z,67.00
2018-09-10T16:48:28.264Z,67.90
2018-09-10T16:50:56.488Z,68.60
2018-09-10T16:53:24.685Z,68.00
2018-09-10T16:55:52.938Z,68.40
2018-09-10T16:58:24.061Z,69.10
2018-09-10T17:00:52.415Z,70.80
2018-09-10T17:03:20.563Z,70.50
2018-09-10T17:05:49.301Z,71.30
2018-09-10T17:08:17.536Z,71.60
2018-09-10T17:10:45.776Z,71.30
2018-09-10T17:13:13.981Z,71.30
2018-09-10T17:15:42.284Z,71.30
2018-09-10T17:18:10.500Z,71.50
2018-09-10T17:20:38.717Z,71.50
2018-09-10T17:23:08.294Z,71.30
2018-09-10T17:25:36.521Z,71.50
2018-09-10T17:28:05.052Z,71.50
2018-09-10T17:30:33.340Z,71.90
2018-09-10T17:33:01.514Z,72.50
2018-09-10T17:35:29.725Z,72.90
2018-09-10T17:37:57.928Z,73.80
2018-09-10T17:40:26.149Z,74.10
2018-09-10T17:42:54.341Z,74.80
2018-09-10T17:45:22.638Z,75.10
2018-09-10T17:47:51.170Z,74.70
2018-09-10T17:50:19.356Z,74.20
2018-09-10T17:52:47.585Z,73.90
2018-09-10T17:55:15.794Z,74.00
2018-09-10T17:57:44.105Z,73.60
2018-09-10T18:00:12.377Z,74.40
2018-09-10T18:02:40.605Z,75.20
2018-09-10T18:05:08.934Z,75.80
2018-09-10T18:07:37.293Z,77.60
2018-09-10T18:10:05.669Z,78.40
2018-09-10T18:12:33.933Z,79.60
2018-09-10T18:15:02.234Z,80.10
2018-09-10T18:17:30.455Z,79.60
2018-09-10T18:19:58.637Z,79.60
2018-09-10T18:22:27.048Z,79.20
2018-09-10T18:24:55.264Z,79.40
2018-09-10T18:27:23.502Z,80.10
2018-09-10T18:29:51.694Z,81.00
2018-09-10T18:32:20.177Z,82.40
2018-09-10T18:34:50.293Z,83.00
2018-09-10T18:37:18.880Z,82.50
2018-09-10T18:39:47.203Z,82.40
2018-09-10T18:42:15.990Z,82.40
2018-09-10T18:44:44.187Z,82.50
2018-09-10T18:47:12.693Z,82.90
2018-09-10T18:49:40.906Z,83.10
2018-09-10T18:52:09.140Z,83.60
2018-09-10T18:54:38.058Z,83.90
2018-09-10T18:57:08.857Z,84.20
2018-09-10T18:59:37.631Z,84.30
2018-09-10T19:02:06.520Z,84.30
2018-09-10T19:04:34.717Z,84.50
2018-09-10T19:07:03.332Z,84.70
2018-09-10T19:09:31.943Z,84.70
2018-09-10T19:12:00.309Z,84.90
2018-09-10T19:14:29.219Z,84.80
2018-09-10T19:16:58.643Z,85.20
2018-09-10T19:19:27.364Z,85.40
2018-09-10T19:21:58.980Z,85.80
2018-09-10T19:24:27.913Z,85.90
2018-09-10T19:27:01.501Z,85.80
2018-09-10T19:29:30.741Z,86.10
2018-09-10T19:32:00.415Z,86.30
2018-09-10T19:34:28.861Z,86.80
2018-09-10T19:36:57.797Z,87.30
2018-09-10T19:39:26.154Z,87.40
2018-09-10T19:41:54.467Z,87.10
2018-09-10T19:44:23.948Z,87.20
2018-09-10T19:46:53.105Z,86.80
2018-09-10T19:49:21.465Z,86.70
2018-09-10T19:51:49.682Z,86.80
2018-09-10T19:54:17.985Z,86.60
2018-09-10T19:56:46.149Z,86.60
2018-09-10T19:59:14.400Z,86.90
2018-09-10T20:01:42.593Z,86.80
2018-09-10T20:04:11.689Z,87.40
2018-09-10T20:06:39.894Z,87.70
2018-09-10T20:09:09.482Z,87.70
2018-09-10T20:11:37.701Z,87.90
2018-09-10T20:14:06.218Z,87.90
2018-09-10T20:16:35.093Z,87.80
2018-09-10T20:19:03.466Z,87.40
2018-09-10T20:21:31.653Z,87.20
2018-09-10T20:23:59.889Z,87.00
2018-09-10T20:26:28.114Z,86.70
2018-09-10T20:28:56.354Z,86.80
2018-09-10T20:31:25.454Z,87.10
2018-09-10T20:33:59.609Z,86.90
2018-09-10T20:36:27.947Z,86.50
2018-09-10T20:38:56.179Z,86.90
2018-09-10T20:41:24.905Z,86.80
2018-09-10T20:43:53.936Z,86.80
2018-09-10T20:46:22.232Z,87.10
2018-09-10T20:48:53.140Z,87.30
2018-09-10T20:51:21.774Z,87.30
2018-09-10T20:53:50.195Z,87.60
2018-09-10T20:56:18.629Z,86.30
2018-09-10T20:58:46.959Z,87.90
2018-09-10T21:01:15.400Z,87.70
2018-09-10T21:03:43.833Z,87.30
2018-09-10T21:06:12.429Z,87.50
2018-09-10T21:08:40.814Z,86.60
2018-09-10T21:11:09.119Z,83.90
2018-09-10T21:13:38.044Z,83.40
2018-09-10T21:16:06.972Z,84.40
2018-09-10T21:18:35.883Z,84.50
2018-09-10T21:21:04.709Z,84.00
2018-09-10T21:23:33.459Z,83.50
2018-09-10T21:26:02.269Z,83.70
2018-09-10T21:28:30.934Z,84.00
2018-09-10T21:30:59.770Z,83.90
2018-09-10T21:33:28.204Z,84.50
2018-09-10T21:35:56.550Z,84.50
2018-09-10T21:38:24.875Z,84.80
2018-09-10T21:40:53.286Z,84.30
2018-09-10T21:43:21.729Z,84.60
2018-09-10T21:45:50.180Z,84.30
2018-09-10T21:48:18.689Z,84.40
2018-09-10T21:50:47.124Z,84.40
2018-09-10T21:53:15.513Z,84.10
2018-09-10T21:55:43.908Z,84.40
2018-09-10T21:58:12.415Z,84.40
2018-09-10T22:00:46.477Z,84.80
2018-09-10T22:03:14.882Z,85.40
2018-09-10T22:05:43.214Z,85.70
2018-09-10T22:08:11.564Z,85.80
2018-09-10T22:10:39.864Z,85.20
2018-09-10T22:13:08.301Z,84.60
2018-09-10T22:15:36.480Z,85.10
2018-09-10T22:18:04.870Z,85.10
2018-09-10T22:20:33.165Z,85.10
2018-09-10T22:23:01.368Z,84.50
2018-09-10T22:25:29.522Z,84.30
2018-09-10T22:27:57.733Z,85.00
2018-09-10T22:30:25.911Z,84.40
2018-09-10T22:32:54.116Z,85.20
2018-09-10T22:35:22.352Z,84.90
2018-09-10T22:37:50.567Z,85.20
2018-09-10T22:40:18.808Z,85.60
2018-09-10T22:42:47.012Z,85.90
2018-09-10T22:45:15.193Z,86.40
2018-09-10T22:47:46.286Z,86.70
2018-09-10T22:50:15.563Z,86.50
2018-09-10T22:52:43.825Z,86.40
2018-09-10T22:55:11.989Z,86.70
2018-09-10T22:57:40.182Z,86.60
2018-09-10T23:00:08.940Z,86.30
2018-09-10T23:02:37.226Z,86.10
2018-09-10T23:05:05.493Z,86.10
2018-09-10T23:07:33.696Z,85.90
2018-09-10T23:10:01.872Z,85.80
2018-09-10T23:12:30.077Z,85.70
2018-09-10T23:14:58.237Z,86.10
2018-09-10T23:17:26.460Z,86.30
2018-09-10T23:19:54.753Z,86.30
2018-09-10T23:22:22.954Z,86.50
2018-09-10T23:24:51.128Z,86.70
2018-09-10T23:27:19.347Z,86.00
2018-09-10T23:29:47.529Z,86.30
2018-09-10T23:32:18.648Z,86.70
2018-09-10T23:34:46.837Z,86.20
2018-09-10T23:37:15.912Z,86.10
2018-09-10T23:39:44.206Z,86.10
2018-09-10T23:42:12.390Z,86.60
2018-09-10T23:44:40.580Z,86.60
2018-09-10T23:47:08.799Z,86.70
2018-09-10T23:49:37.018Z,86.60
2018-09-10T23:52:05.397Z,86.10
2018-09-10T23:54:33.609Z,86.50
2018-09-10T23:57:01.796Z,86.20
2018-09-10T23:59:30.010Z,86.30
